createdAt,value
2022-08-11T00:01:20.262Z,99761.44
2022-08-11T00:04:02.640Z,99768.34
2022-08-11T00:06:40.046Z,99755.75
2022-08-11T00:09:19.612Z,99754.09
2022-08-11T00:11:52.602Z,99761.06
2022-08-11T00:14:20.606Z,99765.69
2022-08-11T00:16:55.719Z,99763.94
2022-08-11T00:20:11.711Z,99770.97
2022-08-11T00:22:19.509Z,99768.44
2022-08-11T00:24:52.584Z,99765.97
2022-08-11T00:27:37.207Z,99768.16
2022-08-11T00:30:05.523Z,99771.41
2022-08-11T00:32:33.487Z,99771.53
2022-08-11T00:35:51.587Z,99771.88
2022-08-11T00:37:50.385Z,99773.34
2022-08-11T00:40:58.766Z,99770.88
2022-08-11T00:43:27.998Z,99768.50
2022-08-11T00:46:16.159Z,99773.16
2022-08-11T00:49:02.043Z,99779.25
2022-08-11T00:52:02.124Z,99782.94
2022-08-11T00:54:43.611Z,99787.16
2022-08-11T00:57:37.151Z,99785.13
2022-08-11T01:00:11.323Z,99784.81
2022-08-11T01:03:13.458Z,99774.97
2022-08-11T01:05:49.176Z,99776.50
2022-08-11T01:08:43.512Z,99779.56
2022-08-11T01:11:55.596Z,99777.84
2022-08-11T01:14:50.138Z,99778.53
2022-08-11T01:17:55.430Z,99785.84
2022-08-11T01:20:59.258Z,99788.16
2022-08-11T01:23:44.403Z,99786.56
2022-08-11T01:26:16.797Z,99781.75
2022-08-11T01:29:24.704Z,99785.53
2022-08-11T01:32:13.108Z,99785.41
2022-08-11T01:35:16.806Z,99782.22
2022-08-11T01:38:05.860Z,99785.41
2022-08-11T01:41:09.832Z,99784.06
2022-08-11T01:44:40.239Z,99787.50
2022-08-11T01:47:09.960Z,99783.59
2022-08-11T01:50:07.893Z,99782.00
2022-08-11T01:52:55.171Z,99783.59
2022-08-11T01:56:00.298Z,99796.16
2022-08-11T01:58:44.055Z,99791.50
2022-08-11T02:01:44.465Z,99794.13
2022-08-11T02:04:38.477Z,99792.06
2022-08-11T02:07:19.436Z,99799.03
2022-08-11T02:10:26.860Z,99800.53
2022-08-11T02:13:41.577Z,99796.84
2022-08-11T02:16:18.072Z,99801.19
2022-08-11T02:19:28.081Z,99797.31
2022-08-11T02:22:24.615Z,99799.16
2022-08-11T02:25:18.411Z,99796.31
2022-08-11T02:27:52.897Z,99796.63
2022-08-11T02:30:25.403Z,99799.38
2022-08-11T02:33:23.736Z,99796.06
2022-08-11T02:36:22.358Z,99794.25
2022-08-11T02:39:09.651Z,99794.00
2022-08-11T02:42:32.869Z,99781.09
2022-08-11T02:45:11.367Z,99789.78
2022-08-11T02:48:24.583Z,99787.38
2022-08-11T02:51:22.140Z,99787.28
2022-08-11T02:54:23.094Z,99790.03
2022-08-11T02:57:11.248Z,99784.53
2022-08-11T02:59:54.059Z,99784.88
2022-08-11T03:02:34.604Z,99786.47
2022-08-11T03:05:11.983Z,99785.22
2022-08-11T03:08:00.893Z,99792.31
2022-08-11T03:11:08.243Z,99793.34
2022-08-11T03:13:57.476Z,99789.44
2022-08-11T03:16:51.804Z,99793.78
2022-08-11T03:19:37.018Z,99797.31
2022-08-11T03:22:33.150Z,99790.72
2022-08-11T03:25:08.751Z,99798.94
2022-08-11T03:28:02.722Z,99793.66
2022-08-11T03:30:42.318Z,99801.88
2022-08-11T03:33:33.700Z,99797.09
2022-08-11T03:36:06.149Z,99803.97
2022-08-11T03:39:03.364Z,99794.81
2022-08-11T03:41:50.234Z,99797.78
2022-08-11T03:44:59.993Z,99800.28
2022-08-11T03:47:57.153Z,99804.03
2022-08-11T03:50:32.772Z,99801.66
2022-08-11T03:53:41.190Z,99801.88
2022-08-11T03:56:32.218Z,99801.41
2022-08-11T03:59:30.411Z,99803.00
2022-08-11T04:02:29.509Z,99803.00
2022-08-11T04:04:56.019Z,99802.66
2022-08-11T04:07:52.411Z,99805.41
2022-08-11T04:10:47.452Z,99809.13
2022-08-11T04:13:51.936Z,99798.53
2022-08-11T04:16:47.119Z,99799.66
2022-08-11T04:20:04.744Z,99796.34
2022-08-11T04:23:03.463Z,99795.44
2022-08-11T04:25:58.213Z,99793.16
2022-08-11T04:28:29.038Z,99797.03
2022-08-11T04:31:44.452Z,99799.31
2022-08-11T04:34:21.909Z,99803.66
2022-08-11T04:37:30.094Z,99810.25
2022-08-11T04:40:02.993Z,99798.63
2022-08-11T04:43:06.991Z,99802.50
2022-08-11T04:45:48.286Z,99793.59
2022-08-11T04:48:53.119Z,99799.53
2022-08-11T04:51:57.100Z,99799.16
2022-08-11T04:55:07.567Z,99806.88
2022-08-11T04:58:17.206Z,99797.56
2022-08-11T05:01:45.214Z,99793.97
2022-08-11T05:04:50.164Z,99790.19
2022-08-11T05:07:48.408Z,99779.78
2022-08-11T05:10:17.895Z,99780.22
2022-08-11T05:12:56.116Z,99780.31
2022-08-11T05:16:08.039Z,99787.84
2022-08-11T05:18:54.013Z,99790.03
2022-08-11T05:21:45.179Z,99793.78
2022-08-11T05:24:39.690Z,99793.69
2022-08-11T05:27:28.226Z,99799.06
2022-08-11T05:30:21.383Z,99800.34
2022-08-11T05:33:17.956Z,99798.13
2022-08-11T05:36:02.413Z,99798.78
2022-08-11T05:38:52.611Z,99802.00
2022-08-11T05:41:40.459Z,99799.81
2022-08-11T05:44:25.911Z,99802.25
2022-08-11T05:47:12.213Z,99795.03
2022-08-11T05:49:59.544Z,99799.81
2022-08-11T05:52:49.237Z,99803.97
2022-08-11T05:55:52.525Z,99812.66
2022-08-11T05:58:39.567Z,99812.97
2022-08-11T06:01:09.866Z,99814.56
2022-08-11T06:03:58.273Z,99817.69
2022-08-11T06:06:27.398Z,99816.31
2022-08-11T06:08:57.271Z,99807.28
2022-08-11T06:11:44.168Z,99812.09
2022-08-11T06:14:13.007Z,99814.16
2022-08-11T06:16:41.967Z,99815.75
2022-08-11T06:19:10.420Z,99819.53
2022-08-11T06:21:38.287Z,99824.09
2022-08-11T06:24:12.072Z,99819.75
2022-08-11T06:27:01.727Z,99826.38
2022-08-11T06:29:37.461Z,99831.81
2022-08-11T06:32:06.212Z,99829.81
2022-08-11T06:34:41.154Z,99825.34
2022-08-11T06:37:32.168Z,99826.47
2022-08-11T06:40:11.521Z,99825.47
2022-08-11T06:43:11.756Z,99826.09
2022-08-11T06:46:03.413Z,99828.22
2022-08-11T06:48:32.535Z,99820.75
2022-08-11T06:51:12.720Z,99832.81
2022-08-11T06:54:04.209Z,99829.81
2022-08-11T06:57:28.239Z,99827.81
2022-08-11T07:00:05.259Z,99826.22
2022-08-11T07:02:37.024Z,99831.09
2022-08-11T07:05:08.886Z,99826.84
2022-08-11T07:08:34.090Z,99827.94
2022-08-11T07:12:06.225Z,99836.25
2022-08-11T07:14:52.684Z,99826.88
2022-08-11T07:17:28.368Z,99828.03
2022-08-11T07:20:17.257Z,99827.13
2022-08-11T07:23:16.311Z,99833.28
2022-08-11T07:26:03.197Z,99832.63
2022-08-11T07:28:52.738Z,99832.06
2022-08-11T07:31:44.505Z,99828.41
2022-08-11T07:34:32.919Z,99834.97
2022-08-11T07:37:03.367Z,99830.09
2022-08-11T07:39:34.014Z,99830.22
2022-08-11T07:42:07.779Z,99829.53
2022-08-11T07:44:55.062Z,99822.06
2022-08-11T07:47:41.543Z,99825.25
2022-08-11T07:50:28.580Z,99824.50
2022-08-11T07:52:58.243Z,99824.53
2022-08-11T07:55:51.815Z,99820.69
2022-08-11T07:58:34.771Z,99821.47
2022-08-11T08:01:36.679Z,99819.28
2022-08-11T08:04:24.468Z,99815.53
2022-08-11T08:07:10.807Z,99821.22
2022-08-11T08:09:57.162Z,99818.22
2022-08-11T08:12:44.043Z,99821.06
2022-08-11T08:15:32.977Z,99814.84
2022-08-11T08:18:09.629Z,99821.31
2022-08-11T08:20:54.699Z,99817.06
2022-08-11T08:23:33.515Z,99814.41
2022-08-11T08:26:28.166Z,99811.69
2022-08-11T08:29:15.993Z,99810.97
2022-08-11T08:31:43.867Z,99807.06
2022-08-11T08:34:11.381Z,99805.50
2022-08-11T08:36:42.559Z,99807.94
2022-08-11T08:39:09.325Z,99798.84
2022-08-11T08:41:38.609Z,99802.09
2022-08-11T08:44:37.319Z,99795.34
2022-08-11T08:47:00.845Z,99790.25
2022-08-11T08:49:34.526Z,99776.41
2022-08-11T08:52:23.690Z,99781.97
2022-08-11T08:54:58.419Z,99778.00
2022-08-11T08:57:28.974Z,99787.13
2022-08-11T08:59:57.718Z,99774.84
2022-08-11T09:02:34.806Z,99789.13
2022-08-11T09:05:04.353Z,99778.78
2022-08-11T09:07:38.530Z,99784.34
2022-08-11T09:10:08.035Z,99776.00
2022-08-11T09:12:38.396Z,99774.81
2022-08-11T09:15:22.436Z,99775.59
2022-08-11T09:17:52.529Z,99768.06
2022-08-11T09:20:21.019Z,99771.16
2022-08-11T09:24:07.049Z,99768.34
2022-08-11T09:26:18.496Z,99765.53
2022-08-11T09:28:46.645Z,99756.38
2022-08-11T09:31:15.042Z,99757.13
2022-08-11T09:33:43.843Z,99757.13
2022-08-11T09:36:30.790Z,99761.09
2022-08-11T09:39:16.818Z,99760.34
2022-08-11T09:42:00.833Z,99755.09
2022-08-11T09:45:00.914Z,99754.31
2022-08-11T09:47:30.223Z,99746.72
2022-08-11T09:50:02.492Z,99752.25
2022-08-11T09:52:32.699Z,99751.84
2022-08-11T09:55:00.040Z,99755.47
2022-08-11T09:57:45.227Z,99758.63
2022-08-11T10:00:15.261Z,99740.34
2022-08-11T10:02:45.617Z,99738.72
2022-08-11T10:05:34.167Z,99724.81
2022-08-11T10:08:01.814Z,99738.28
2022-08-11T10:10:29.861Z,99728.66
2022-08-11T10:13:05.414Z,99725.41
2022-08-11T10:16:03.565Z,99719.41
2022-08-11T10:18:53.781Z,99718.22
2022-08-11T10:21:37.890Z,99721.34
2022-08-11T10:24:25.778Z,99716.88
2022-08-11T10:26:55.533Z,99702.97
2022-08-11T10:29:49.594Z,99716.44
2022-08-11T10:32:57.392Z,99707.25
2022-08-11T10:35:28.664Z,99704.09
2022-08-11T10:38:08.621Z,99697.38
2022-08-11T10:40:40.160Z,99687.50
2022-08-11T10:43:13.390Z,99691.50
2022-08-11T10:46:03.181Z,99698.97
2022-08-11T10:48:35.230Z,99700.09
2022-08-11T10:51:14.895Z,99699.25
2022-08-11T10:54:07.150Z,99687.28
2022-08-11T10:56:58.881Z,99684.84
2022-08-11T10:59:28.186Z,99680.00
2022-08-11T11:01:56.003Z,99679.91
2022-08-11T11:04:38.884Z,99667.44
2022-08-11T11:07:21.070Z,99665.31
2022-08-11T11:09:50.700Z,99657.31
2022-08-11T11:12:57.581Z,99662.06
2022-08-11T11:15:45.735Z,99661.88
2022-08-11T11:18:24.186Z,99661.66
2022-08-11T11:20:54.385Z,99658.09
2022-08-11T11:23:37.475Z,99660.84
2022-08-11T11:26:27.121Z,99643.16
2022-08-11T11:29:00.311Z,99660.59
2022-08-11T11:31:46.044Z,99648.44
2022-08-11T11:34:21.367Z,99660.16
2022-08-11T11:36:50.739Z,99651.41
2022-08-11T11:39:21.762Z,99658.59
2022-08-11T11:41:52.262Z,99644.38
2022-08-11T11:44:21.266Z,99652.34
2022-08-11T11:46:48.410Z,99647.31
2022-08-11T11:49:18.715Z,99654.25
2022-08-11T11:51:52.586Z,99650.97
2022-08-11T11:54:25.185Z,99646.66
2022-08-11T11:56:53.362Z,99649.09
2022-08-11T11:59:43.607Z,99642.59
2022-08-11T12:02:14.858Z,99638.22
2022-08-11T12:04:44.500Z,99636.03
2022-08-11T12:07:30.893Z,99633.59
2022-08-11T12:09:59.032Z,99625.09
2022-08-11T12:12:44.955Z,99625.91
2022-08-11T12:15:12.595Z,99616.72
2022-08-11T12:17:39.859Z,99618.03
2022-08-11T12:20:31.639Z,99624.28
2022-08-11T12:23:15.169Z,99622.47
2022-08-11T12:26:26.583Z,99613.66
2022-08-11T12:28:50.533Z,99607.09
2022-08-11T12:31:17.539Z,99596.63
2022-08-11T12:33:44.543Z,99600.19
2022-08-11T12:36:15.800Z,99586.78
2022-08-11T12:38:51.254Z,99592.22
2022-08-11T12:41:39.713Z,99585.91
2022-08-11T12:44:42.465Z,99593.59
2022-08-11T12:47:10.810Z,99600.41
2022-08-11T12:50:03.232Z,99597.97
2022-08-11T12:52:35.724Z,99586.63
2022-08-11T12:55:34.803Z,99588.88
2022-08-11T12:58:17.768Z,99590.47
2022-08-11T13:01:05.004Z,99571.25
2022-08-11T13:03:56.892Z,99571.09
2022-08-11T13:06:25.050Z,99565.22
2022-08-11T13:08:53.302Z,99555.88
2022-08-11T13:11:56.480Z,99549.84
2022-08-11T13:14:26.070Z,99548.56
2022-08-11T13:17:11.813Z,99556.28
2022-08-11T13:19:38.748Z,99555.13
2022-08-11T13:22:07.461Z,99554.88
2022-08-11T13:24:35.950Z,99552.94
2022-08-11T13:27:03.434Z,99542.09
2022-08-11T13:29:30.465Z,99536.50
2022-08-11T13:31:59.798Z,99542.78
2022-08-11T13:34:28.601Z,99538.84
2022-08-11T13:36:57.985Z,99533.69
2022-08-11T13:39:27.242Z,99537.38
2022-08-11T13:41:57.218Z,99534.19
2022-08-11T13:44:29.301Z,99524.50
2022-08-11T13:47:04.245Z,99533.41
2022-08-11T13:49:33.225Z,99520.44
2022-08-11T13:52:00.187Z,99512.69
2022-08-11T13:54:31.383Z,99510.72
2022-08-11T13:57:09.485Z,99496.03
2022-08-11T13:59:55.368Z,99503.50
2022-08-11T14:02:31.915Z,99508.78
2022-08-11T14:05:03.983Z,99511.00
2022-08-11T14:07:39.533Z,99499.22
2022-08-11T14:10:09.008Z,99492.16
2022-08-11T14:12:56.776Z,99483.09
2022-08-11T14:15:31.297Z,99495.72
2022-08-11T14:18:05.294Z,99486.19
2022-08-11T14:20:54.189Z,99478.47
2022-08-11T14:23:36.017Z,99483.97
2022-08-11T14:26:21.662Z,99482.53
2022-08-11T14:28:48.600Z,99475.06
2022-08-11T14:31:16.093Z,99477.50
2022-08-11T14:34:00.913Z,99477.84
2022-08-11T14:36:36.779Z,99469.16
2022-08-11T14:39:08.302Z,99459.38
2022-08-11T14:42:11.119Z,99462.63
2022-08-11T14:45:02.209Z,99462.09
2022-08-11T14:47:32.430Z,99463.16
2022-08-11T14:50:09.530Z,99460.50
2022-08-11T14:52:39.034Z,99460.06
2022-08-11T14:55:26.561Z,99458.97
2022-08-11T14:58:04.953Z,99455.16
2022-08-11T15:00:34.172Z,99459.16
2022-08-11T15:03:12.692Z,99448.41
2022-08-11T15:05:56.939Z,99441.56
2022-08-11T15:08:46.087Z,99442.72
2022-08-11T15:11:33.954Z,99443.06
2022-08-11T15:14:05.112Z,99438.91
2022-08-11T15:16:51.508Z,99432.00
2022-08-11T15:19:21.299Z,99440.22
2022-08-11T15:22:08.361Z,99441.91
2022-08-11T15:24:36.776Z,99428.59
2022-08-11T15:27:33.865Z,99434.81
2022-08-11T15:30:33.401Z,99437.66
2022-08-11T15:33:24.179Z,99425.25
2022-08-11T15:36:10.556Z,99426.78
2022-08-11T15:38:42.822Z,99424.44
2022-08-11T15:41:38.260Z,99420.84
2022-08-11T15:44:58.960Z,99409.38
2022-08-11T15:47:17.935Z,99411.00
2022-08-11T15:50:11.958Z,99424.22
2022-08-11T15:52:40.378Z,99419.94
2022-08-11T15:55:08.986Z,99416.84
2022-08-11T15:57:56.272Z,99419.16
2022-08-11T16:00:41.618Z,99414.88
2022-08-11T16:04:06.574Z,99414.69
2022-08-11T16:06:16.507Z,99407.91
2022-08-11T16:08:45.083Z,99406.88
2022-08-11T16:11:13.275Z,99389.06
2022-08-11T16:13:40.986Z,99400.19
2022-08-11T16:16:16.545Z,99403.84
2022-08-11T16:18:51.642Z,99404.06
2022-08-11T16:21:26.794Z,99400.59
2022-08-11T16:24:07.704Z,99401.00
2022-08-11T16:27:08.419Z,99401.69
2022-08-11T16:29:26.113Z,99387.75
2022-08-11T16:32:13.678Z,99390.25
2022-08-11T16:35:00.677Z,99386.59
2022-08-11T16:37:46.947Z,99386.09
2022-08-11T16:40:15.219Z,99382.47
2022-08-11T16:43:10.249Z,99385.69
2022-08-11T16:45:59.017Z,99395.03
2022-08-11T16:48:36.594Z,99387.91
2022-08-11T16:51:10.887Z,99393.56
2022-08-11T16:53:50.124Z,99388.44
2022-08-11T16:56:37.644Z,99384.63
2022-08-11T16:59:17.063Z,99392.44
2022-08-11T17:02:10.872Z,99383.25
2022-08-11T17:05:13.625Z,99381.50
2022-08-11T17:08:02.297Z,99391.97
2022-08-11T17:11:03.666Z,99401.63
2022-08-11T17:13:54.191Z,99395.00
2022-08-11T17:16:25.761Z,99389.00
2022-08-11T17:19:02.508Z,99388.41
2022-08-11T17:21:57.789Z,99395.47
2022-08-11T17:24:27.559Z,99400.16
2022-08-11T17:26:59.177Z,99406.09
2022-08-11T17:29:28.809Z,99409.53
2022-08-11T17:32:15.275Z,99402.28
2022-08-11T17:35:04.855Z,99408.63
2022-08-11T17:37:34.482Z,99407.66
2022-08-11T17:40:05.941Z,99408.16
2022-08-11T17:42:52.827Z,99408.03
2022-08-11T17:45:40.763Z,99411.06
2022-08-11T17:48:27.521Z,99411.69
2022-08-11T17:51:07.209Z,99413.53
2022-08-11T17:54:24.016Z,99413.41
2022-08-11T17:57:19.918Z,99407.69
2022-08-11T17:59:56.388Z,99415.47
2022-08-11T18:02:54.153Z,99408.16
2022-08-11T18:05:25.452Z,99416.28
2022-08-11T18:08:13.444Z,99420.50
2022-08-11T18:10:59.551Z,99417.84
2022-08-11T18:13:51.676Z,99418.00
2022-08-11T18:16:37.823Z,99421.41
2022-08-11T18:19:25.170Z,99424.72
2022-08-11T18:22:16.039Z,99424.81
2022-08-11T18:25:14.548Z,99428.94
2022-08-11T18:28:04.444Z,99423.84
2022-08-11T18:31:03.255Z,99427.53
2022-08-11T18:34:07.867Z,99429.22
2022-08-11T18:37:19.960Z,99435.38
2022-08-11T18:40:15.142Z,99435.06
2022-08-11T18:43:03.148Z,99429.22
2022-08-11T18:45:51.286Z,99428.16
2022-08-11T18:48:53.814Z,99444.22
2022-08-11T18:51:42.589Z,99435.16
2022-08-11T18:54:30.299Z,99445.66
2022-08-11T18:57:20.893Z,99443.84
2022-08-11T19:00:08.707Z,99443.97
2022-08-11T19:02:56.611Z,99452.78
2022-08-11T19:06:06.003Z,99449.31
2022-08-11T19:08:53.402Z,99451.44
2022-08-11T19:11:42.808Z,99459.53
2022-08-11T19:14:33.851Z,99463.59
2022-08-11T19:17:45.192Z,99475.59
2022-08-11T19:20:32.045Z,99473.31
2022-08-11T19:23:18.637Z,99459.50
2022-08-11T19:26:06.004Z,99466.69
2022-08-11T19:28:53.384Z,99466.00
2022-08-11T19:31:44.415Z,99474.38
2022-08-11T19:34:33.243Z,99471.25
2022-08-11T19:37:24.045Z,99472.88
2022-08-11T19:40:13.022Z,99476.88
2022-08-11T19:43:00.411Z,99481.22
2022-08-11T19:45:52.161Z,99481.63
2022-08-11T19:48:40.452Z,99490.38
2022-08-11T19:51:29.054Z,99480.50
2022-08-11T19:54:16.366Z,99488.78
2022-08-11T19:57:03.115Z,99486.41
2022-08-11T19:59:49.343Z,99488.00
2022-08-11T20:02:35.344Z,99494.31
2022-08-11T20:05:20.848Z,99500.63
2022-08-11T20:08:07.942Z,99495.09
2022-08-11T20:10:54.968Z,99495.06
2022-08-11T20:13:43.692Z,99499.78
2022-08-11T20:16:32.482Z,99501.72
2022-08-11T20:19:26.144Z,99496.91
2022-08-11T20:22:26.354Z,99494.09
2022-08-11T20:25:13.302Z,99494.06
2022-08-11T20:28:01.460Z,99495.56
2022-08-11T20:30:51.922Z,99497.06
2022-08-11T20:33:38.353Z,99498.53
2022-08-11T20:36:24.802Z,99504.41
2022-08-11T20:39:11.959Z,99499.22
2022-08-11T20:41:59.642Z,99506.28
2022-08-11T20:44:47.050Z,99503.50
2022-08-11T20:47:56.319Z,99501.09
2022-08-11T20:50:45.928Z,99503.78
2022-08-11T20:53:35.932Z,99508.50
2022-08-11T20:56:28.897Z,99512.34
2022-08-11T20:59:18.416Z,99512.34
2022-08-11T21:02:10.125Z,99521.41
2022-08-11T21:04:57.707Z,99516.97
2022-08-11T21:07:57.116Z,99517.69
2022-08-11T21:10:50.592Z,99527.13
2022-08-11T21:13:40.243Z,99518.78
2022-08-11T21:16:27.486Z,99517.94
2022-08-11T21:20:01.556Z,99517.13
2022-08-11T21:22:35.717Z,99523.41
2022-08-11T21:25:25.727Z,99521.44
2022-08-11T21:28:12.914Z,99515.88
2022-08-11T21:30:59.440Z,99524.09
2022-08-11T21:33:49.916Z,99531.53
2022-08-11T21:36:37.880Z,99512.56
2022-08-11T21:39:25.712Z,99517.25
2022-08-11T21:42:13.211Z,99522.66
2022-08-11T21:45:01.195Z,99517.84
2022-08-11T21:47:48.121Z,99510.66
2022-08-11T21:50:33.286Z,99518.50
2022-08-11T21:53:18.704Z,99509.75
2022-08-11T21:56:04.680Z,99521.47
2022-08-11T21:58:51.209Z,99513.13
2022-08-11T22:01:37.082Z,99509.91
2022-08-11T22:04:24.287Z,99519.25
2022-08-11T22:07:10.317Z,99521.03
2022-08-11T22:09:56.399Z,99513.44
2022-08-11T22:12:44.909Z,99517.69
2022-08-11T22:15:30.386Z,99514.44
2022-08-11T22:18:15.758Z,99515.91
2022-08-11T22:21:01.752Z,99519.72
2022-08-11T22:23:49.676Z,99517.63
2022-08-11T22:26:39.739Z,99514.00
2022-08-11T22:29:38.249Z,99511.53
2022-08-11T22:32:33.884Z,99513.03
2022-08-11T22:35:21.764Z,99509.78
2022-08-11T22:38:08.137Z,99502.63
2022-08-11T22:40:53.606Z,99509.56
2022-08-11T22:43:38.809Z,99508.31
2022-08-11T22:46:24.274Z,99503.09
2022-08-11T22:49:10.228Z,99500.72
2022-08-11T22:51:57.068Z,99512.84
2022-08-11T22:54:43.021Z,99506.44
2022-08-11T22:57:29.192Z,99512.25
2022-08-11T23:00:16.736Z,99508.31
2022-08-11T23:03:02.206Z,99508.25
2022-08-11T23:05:48.174Z,99503.47
2022-08-11T23:08:34.715Z,99511.28
2022-08-11T23:11:20.664Z,99510.88
2022-08-11T23:14:06.699Z,99504.91
2022-08-11T23:16:52.087Z,99500.16
2022-08-11T23:20:08.334Z,99501.69
2022-08-11T23:22:50.080Z,99501.63
2022-08-11T23:25:36.276Z,99497.63
2022-08-11T23:28:24.816Z,99501.50
2022-08-11T23:31:15.755Z,99503.38
2022-08-11T23:34:05.199Z,99494.94
2022-08-11T23:36:50.394Z,99499.59
2022-08-11T23:39:35.595Z,99500.31
2022-08-11T23:42:24.121Z,99504.09
2022-08-11T23:45:09.727Z,99493.78
2022-08-11T23:47:56.809Z,99491.34
2022-08-11T23:50:42.984Z,99495.69
2022-08-11T23:53:28.658Z,99497.72
2022-08-11T23:56:14.242Z,99484.84
2022-08-11T23:58:59.602Z,99487.31
